createdAt,value
2023-04-21T06:29:16.052Z,10.95
2023-04-21T06:32:42.953Z,11.07
2023-04-21T06:36:10.384Z,10.99
2023-04-21T06:39:37.523Z,10.93
2023-04-21T06:43:04.216Z,10.91
2023-04-21T06:46:31.545Z,10.92
2023-04-21T06:49:58.644Z,10.94
2023-04-21T06:53:25.298Z,10.99
2023-04-21T06:56:52.508Z,11.06
2023-04-21T07:00:21.164Z,11.11
2023-04-21T07:03:48.111Z,11.19
2023-04-21T07:07:16.176Z,11.25
2023-04-21T07:10:42.909Z,11.35
2023-04-21T07:14:09.602Z,11.43
2023-04-21T07:17:36.385Z,11.50
2023-04-21T07:21:03.211Z,11.58
2023-04-21T07:24:33.009Z,11.67
2023-04-21T07:28:00.187Z,11.76
2023-04-21T07:31:27.114Z,11.86
2023-04-21T07:34:54.244Z,11.98
2023-04-21T07:38:21.411Z,12.10
2023-04-21T07:41:51.443Z,12.21
2023-04-21T07:45:18.501Z,12.29
2023-04-21T07:48:46.621Z,12.40
2023-04-21T07:52:13.880Z,12.52
2023-04-21T07:55:40.766Z,12.63
2023-04-21T07:59:08.011Z,12.75
2023-04-21T08:02:35.314Z,12.87
2023-04-21T08:06:02.495Z,13.00
2023-04-21T08:09:29.702Z,13.12
2023-04-21T08:12:57.170Z,13.25
2023-04-21T08:16:25.799Z,13.37
2023-04-21T08:19:57.389Z,13.48
2023-04-21T08:23:32.262Z,13.59
2023-04-21T08:27:04.166Z,13.72
2023-04-21T08:30:32.323Z,13.84
2023-04-21T08:34:02.774Z,13.93
2023-04-21T08:37:32.473Z,14.04
2023-04-21T08:41:02.906Z,14.17
2023-04-21T08:44:30.931Z,14.26
2023-04-21T08:48:00.710Z,14.33
2023-04-21T08:51:35.281Z,14.45
2023-04-21T08:55:09.807Z,14.57
2023-04-21T08:58:44.440Z,14.72
2023-04-21T09:02:18.716Z,14.86
2023-04-21T09:05:58.946Z,15.00
2023-04-21T09:09:27.727Z,15.11
2023-04-21T09:12:56.543Z,15.21
2023-04-21T09:16:24.683Z,15.28
2023-04-21T09:19:52.221Z,15.37
2023-04-21T09:23:19.158Z,15.49
2023-04-21T09:26:45.730Z,15.60
2023-04-21T09:30:20.034Z,15.71
2023-04-21T09:33:59.432Z,15.86
2023-04-21T09:37:27.693Z,16.00
2023-04-21T09:41:01.506Z,16.11
2023-04-21T09:44:28.420Z,16.23
2023-04-21T09:47:58.719Z,16.37
2023-04-21T09:51:42.722Z,16.46
2023-04-21T09:55:17.884Z,16.53
2023-04-21T09:58:53.899Z,16.57
2023-04-21T10:02:26.115Z,16.64
2023-04-21T10:05:53.285Z,16.77
2023-04-21T10:09:23.284Z,16.87
2023-04-21T10:12:51.602Z,17.01
2023-04-21T10:16:21.704Z,17.08
2023-04-21T10:19:57.515Z,17.10
2023-04-21T10:23:38.985Z,17.14
2023-04-21T10:27:05.937Z,17.20
2023-04-21T10:30:32.766Z,17.25
2023-04-21T10:34:16.031Z,17.40
2023-04-21T10:37:43.830Z,17.55
2023-04-21T10:41:30.137Z,17.66
2023-04-21T10:45:07.828Z,17.82
2023-04-21T10:48:40.014Z,17.92
2023-04-21T10:52:12.461Z,18.00
2023-04-21T10:55:39.547Z,18.16
2023-04-21T10:59:07.400Z,18.31
2023-04-21T11:02:36.563Z,18.43
2023-04-21T11:06:18.477Z,18.48
2023-04-21T11:09:47.211Z,18.49
2023-04-21T11:13:14.173Z,18.60
2023-04-21T11:16:45.561Z,18.71
2023-04-21T11:20:14.435Z,18.78
2023-04-21T11:23:49.311Z,18.86
2023-04-21T11:27:18.159Z,18.92
2023-04-21T11:30:46.575Z,18.90
2023-04-21T11:34:14.006Z,18.92
2023-04-21T11:37:41.485Z,18.95
2023-04-21T11:41:09.676Z,19.02
2023-04-21T11:44:39.273Z,19.05
2023-04-21T11:48:18.572Z,19.04
2023-04-21T11:51:47.121Z,19.13
2023-04-21T11:55:19.940Z,19.32
2023-04-21T11:58:47.381Z,19.56
2023-04-21T12:02:23.362Z,19.78
2023-04-21T12:05:50.164Z,19.93
2023-04-21T12:09:22.025Z,20.01
2023-04-21T12:12:49.798Z,20.08
2023-04-21T12:16:17.732Z,20.20
2023-04-21T12:19:45.691Z,20.42
2023-04-21T12:23:13.448Z,20.65
2023-04-21T12:26:41.110Z,20.85
2023-04-21T12:30:10.810Z,21.06
2023-04-21T12:33:38.311Z,21.29
2023-04-21T12:37:05.111Z,21.52
2023-04-21T12:40:32.190Z,21.69
2023-04-21T12:43:58.948Z,21.79
2023-04-21T12:47:25.687Z,21.88
2023-04-21T12:50:52.620Z,22.02
2023-04-21T12:54:20.132Z,22.19
2023-04-21T12:57:47.562Z,22.34
2023-04-21T13:01:17.096Z,22.50
2023-04-21T13:04:46.159Z,22.71
2023-04-21T13:08:12.943Z,22.96
2023-04-21T13:11:40.054Z,23.17
2023-04-21T13:15:09.155Z,23.30
2023-04-21T13:18:37.526Z,23.38
2023-04-21T13:22:04.582Z,23.44
2023-04-21T13:25:32.023Z,23.54
2023-04-21T13:28:58.759Z,23.65
2023-04-21T13:32:25.752Z,23.75
2023-04-21T13:35:53.680Z,23.80
2023-04-21T13:39:21.468Z,23.96
2023-04-21T13:42:52.439Z,24.09
2023-04-21T13:46:21.438Z,24.23
2023-04-21T13:49:49.011Z,24.33
2023-04-21T13:53:18.164Z,24.45
2023-04-21T13:56:52.416Z,24.59
2023-04-21T14:00:22.309Z,24.73
2023-04-21T14:03:50.943Z,24.84
2023-04-21T14:07:20.155Z,24.95
2023-04-21T14:10:49.114Z,25.03
2023-04-21T14:14:24.283Z,25.06
2023-04-21T14:17:58.391Z,25.14
2023-04-21T14:21:25.397Z,25.18
2023-04-21T14:24:52.680Z,25.21
2023-04-21T14:28:30.513Z,25.24
2023-04-21T14:31:59.004Z,25.24
2023-04-21T14:35:26.912Z,25.24
2023-04-21T14:38:57.589Z,25.25
2023-04-21T14:42:34.795Z,25.24
2023-04-21T14:46:01.771Z,25.25
2023-04-21T14:49:29.621Z,25.34
2023-04-21T14:52:56.704Z,25.31
2023-04-21T14:56:23.590Z,25.25
2023-04-21T14:59:51.805Z,25.21
2023-04-21T15:03:19.091Z,25.12
2023-04-21T15:06:48.903Z,25.01
2023-04-21T15:10:31.240Z,24.82
2023-04-21T15:13:59.116Z,24.63
2023-04-21T15:17:27.975Z,24.42
2023-04-21T15:20:58.274Z,24.13
2023-04-21T15:24:32.087Z,23.84
2023-04-21T15:27:59.779Z,23.49
2023-04-21T15:31:26.726Z,23.21
2023-04-21T15:34:54.269Z,22.93
2023-04-21T15:38:22.871Z,22.67
2023-04-21T15:41:50.267Z,22.40
2023-04-21T15:45:18.343Z,22.10
2023-04-21T15:48:45.683Z,21.81
2023-04-21T15:52:12.672Z,21.52
2023-04-21T15:55:39.720Z,21.31
2023-04-21T15:59:07.664Z,21.15
2023-04-21T16:02:35.042Z,20.98
2023-04-21T16:06:02.126Z,20.84
2023-04-21T16:09:32.606Z,20.76
2023-04-21T16:12:59.589Z,20.69
2023-04-21T16:16:26.360Z,20.62
2023-04-21T16:19:55.447Z,20.56
2023-04-21T16:23:22.558Z,20.47
2023-04-21T16:26:49.993Z,20.38
2023-04-21T16:30:17.174Z,20.32
2023-04-21T16:33:45.728Z,20.23
2023-04-21T16:37:12.690Z,20.09
2023-04-21T16:40:39.846Z,19.97
2023-04-21T16:44:10.838Z,19.86
2023-04-21T16:47:42.155Z,19.75
2023-04-21T16:51:10.429Z,19.64
2023-04-21T16:54:37.096Z,19.53
2023-04-21T16:58:04.930Z,19.40
2023-04-21T17:01:32.557Z,19.26
2023-04-21T17:04:59.785Z,19.12
2023-04-21T17:08:27.108Z,18.96
2023-04-21T17:11:54.669Z,18.79
2023-04-21T17:15:23.941Z,18.61
2023-04-21T17:18:51.048Z,18.43
2023-04-21T17:22:19.352Z,18.28
2023-04-21T17:25:47.377Z,18.12
2023-04-21T17:29:14.796Z,17.95
2023-04-21T17:32:44.528Z,17.80
2023-04-21T17:36:13.017Z,17.65
2023-04-21T17:39:40.717Z,17.51
2023-04-21T17:43:07.476Z,17.34
2023-04-21T17:46:37.111Z,17.15
2023-04-21T17:50:09.417Z,16.97
2023-04-21T17:53:35.966Z,16.80
2023-04-21T17:57:03.080Z,16.62
2023-04-21T18:00:34.783Z,16.45
2023-04-21T18:04:01.983Z,16.29
2023-04-21T18:07:29.729Z,16.16
2023-04-21T18:10:57.387Z,16.02
2023-04-21T18:14:24.425Z,15.88
2023-04-21T18:17:53.360Z,15.71
2023-04-21T18:21:21.603Z,15.57
2023-04-21T18:24:49.172Z,15.44
2023-04-21T18:28:16.124Z,15.33
2023-04-21T18:31:43.034Z,15.21
2023-04-21T18:35:11.961Z,15.11
2023-04-21T18:38:40.844Z,15.01
2023-04-21T18:42:12.968Z,14.90
2023-04-21T18:45:41.532Z,14.75
2023-04-21T18:49:11.230Z,14.59
2023-04-21T18:52:40.501Z,14.43
2023-04-21T18:56:08.438Z,14.27
2023-04-21T18:59:35.931Z,14.13
2023-04-21T19:03:07.206Z,14.00
2023-04-21T19:06:36.901Z,13.88
2023-04-21T19:10:08.122Z,13.77
2023-04-21T19:13:36.844Z,13.67
2023-04-21T19:17:05.036Z,13.58
2023-04-21T19:20:35.933Z,13.49
2023-04-21T19:24:03.505Z,13.42
2023-04-21T19:27:32.076Z,13.33
2023-04-21T19:30:59.659Z,13.28
2023-04-21T19:34:32.499Z,13.21
2023-04-21T19:38:00.922Z,13.12
2023-04-21T19:41:31.809Z,13.03
2023-04-21T19:44:58.999Z,12.94
2023-04-21T19:48:31.910Z,12.85
2023-04-21T19:52:02.453Z,12.74
2023-04-21T19:55:32.957Z,12.63
2023-04-21T19:59:02.249Z,12.53
2023-04-21T20:02:30.768Z,12.42
2023-04-21T20:05:59.221Z,12.29
2023-04-21T20:09:37.882Z,12.20
2023-04-21T20:13:09.840Z,12.13
2023-04-21T20:16:41.655Z,12.06
2023-04-21T20:20:18.953Z,11.97
2023-04-21T20:23:51.986Z,11.90
2023-04-21T20:27:21.923Z,11.85
2023-04-21T20:30:49.674Z,11.80
2023-04-21T20:34:21.561Z,11.75
2023-04-21T20:37:53.843Z,11.69
2023-04-21T20:41:25.333Z,11.63
2023-04-21T20:45:02.629Z,11.56
2023-04-21T20:48:33.266Z,11.47
2023-04-21T20:52:03.535Z,11.40
2023-04-21T20:55:39.000Z,11.35
2023-04-21T20:59:06.313Z,11.31
2023-04-21T21:02:36.728Z,11.25
2023-04-21T21:06:05.029Z,11.20
2023-04-21T21:09:34.148Z,11.14
2023-04-21T21:13:01.420Z,11.07
2023-04-21T21:16:29.412Z,11.02
2023-04-21T21:19:56.455Z,10.95
2023-04-21T21:23:23.217Z,10.88
2023-04-21T21:26:52.211Z,10.81
2023-04-21T21:30:19.636Z,10.76
2023-04-21T21:33:48.865Z,10.69
2023-04-21T21:37:16.522Z,10.64
2023-04-21T21:40:44.659Z,10.59
2023-04-21T21:44:12.190Z,10.53
2023-04-21T21:47:43.213Z,10.47
2023-04-21T21:51:12.780Z,10.42
2023-04-21T21:54:42.095Z,10.37
2023-04-21T21:58:09.714Z,10.32
2023-04-21T22:01:37.020Z,10.28
2023-04-21T22:05:05.574Z,10.23
2023-04-21T22:08:34.457Z,10.19
2023-04-21T22:12:02.747Z,10.14
2023-04-21T22:15:31.758Z,10.09
2023-04-21T22:18:59.427Z,10.05
2023-04-21T22:22:26.990Z,10.00
2023-04-21T22:25:54.634Z,9.97
2023-04-21T22:29:22.908Z,9.94
2023-04-21T22:32:50.432Z,9.88
2023-04-21T22:36:17.366Z,9.82
2023-04-21T22:39:43.955Z,9.77
2023-04-21T22:43:16.177Z,9.73
2023-04-21T22:46:43.049Z,9.69
2023-04-21T22:50:15.197Z,9.65
2023-04-21T22:53:42.354Z,9.60
2023-04-21T22:57:09.096Z,9.55
2023-04-21T23:00:36.015Z,9.52
2023-04-21T23:04:02.840Z,9.47
2023-04-21T23:07:29.805Z,9.42
2023-04-21T23:10:57.217Z,9.38
2023-04-21T23:14:24.447Z,9.33
2023-04-21T23:17:51.542Z,9.27
2023-04-21T23:21:21.041Z,9.22
2023-04-21T23:24:47.698Z,9.16
2023-04-21T23:28:14.595Z,9.12
2023-04-21T23:31:41.880Z,9.08
2023-04-21T23:35:11.545Z,9.02
2023-04-21T23:38:38.520Z,8.99
2023-04-21T23:42:05.475Z,8.95
2023-04-21T23:45:34.431Z,8.90
2023-04-21T23:49:01.198Z,8.87
2023-04-21T23:52:28.690Z,8.81
2023-04-21T23:55:56.519Z,8.75
2023-04-21T23:59:23.259Z,8.71
